Time;durP1;ratioP1;P1;durP2;ratioP2;P2;SDS_P1;SDS_P2;PMS_P1;PMS_P2;Temp;Humidity;BMP_temperature;BMP_pressure;BME280_temperature;BME280_humidity;BME280_pressure;Samples;Min_cycle;Max_cycle;Signal;HPM_P1;HPM_P2
2023/06/06 00:00:54;;;;;;;1.10;1.00;;;;;;;17.01;100.00;99849.56;5010765;28;20030;-90
2023/06/06 00:03:21;;;;;;;1.77;1.15;;;;;;;17.01;100.00;99845.97;5012458;28;20041;-90
2023/06/06 00:05:48;;;;;;;0.90;0.90;;;;;;;16.99;100.00;99845.69;4979992;28;20436;-90
2023/06/06 00:08:14;;;;;;;0.77;0.77;;;;;;;16.99;100.00;99840.09;4979374;28;20042;-89
2023/06/06 00:10:39;;;;;;;0.80;0.80;;;;;;;16.90;100.00;99840.22;4993719;28;20530;-89
2023/06/06 00:13:05;;;;;;;1.00;1.00;;;;;;;16.91;100.00;99844.53;4979511;28;20030;-90
2023/06/06 00:15:31;;;;;;;0.47;0.47;;;;;;;16.82;100.00;99842.63;4976835;28;20084;-89
2023/06/06 00:17:59;;;;;;;0.57;0.57;;;;;;;16.83;100.00;99837.78;4975298;28;20399;-89
2023/06/06 00:20:25;;;;;;;0.65;0.65;;;;;;;16.72;100.00;99839.16;4979920;28;20041;-89
2023/06/06 00:22:53;;;;;;;1.17;1.08;;;;;;;16.71;100.00;99840.41;4979631;28;20029;-89
2023/06/06 00:25:18;;;;;;;1.20;0.65;;;;;;;16.74;100.00;99844.28;4996350;28;20140;-90
2023/06/06 00:27:44;;;;;;;0.25;0.25;;;;;;;16.71;100.00;99851.63;4978953;28;20038;-88
2023/06/06 00:30:10;;;;;;;0.20;0.20;;;;;;;16.68;100.00;99844.19;4996380;28;20461;-89
2023/06/06 00:32:36;;;;;;;0.50;0.50;;;;;;;16.70;100.00;99838.84;4980713;28;20034;-89
2023/06/06 00:35:01;;;;;;;0.80;0.47;;;;;;;16.62;100.00;99837.69;4995539;28;20409;-90
2023/06/06 00:37:28;;;;;;;0.85;0.77;;;;;;;16.70;100.00;99844.47;5002314;28;20116;-90
2023/06/06 00:39:53;;;;;;;0.38;0.38;;;;;;;16.68;100.00;99841.38;4979167;28;20072;-89
2023/06/06 00:42:19;;;;;;;1.23;1.00;;;;;;;16.67;100.00;99831.44;4995570;28;20033;-91
2023/06/06 00:44:45;;;;;;;1.00;0.85;;;;;;;16.75;100.00;99843.00;5011865;28;20436;-90
2023/06/06 00:47:11;;;;;;;0.73;0.73;;;;;;;16.77;100.00;99846.88;5012358;28;20033;-90
2023/06/06 00:49:37;;;;;;;0.38;0.38;;;;;;;16.65;100.00;99822.75;4993822;28;20037;-89
2023/06/06 00:52:03;;;;;;;1.17;0.45;;;;;;;16.73;100.00;99828.72;4990062;28;20089;-89
2023/06/06 00:54:30;;;;;;;0.50;0.40;;;;;;;16.76;100.00;99842.53;5011290;28;20048;-89
2023/06/06 00:56:56;;;;;;;0.85;0.85;;;;;;;16.76;100.00;99822.94;4977341;28;20034;-89
2023/06/06 00:59:23;;;;;;;1.45;0.85;;;;;;;16.80;100.00;99839.53;4993900;28;20035;-89
2023/06/06 01:01:50;;;;;;;0.85;0.63;;;;;;;16.79;100.00;99827.56;5160498;23;20049;-93
2023/06/06 01:04:15;;;;;;;0.60;0.60;;;;;;;16.66;100.00;99801.88;5024783;23;20053;-94
2023/06/06 01:06:41;;;;;;;0.20;0.20;;;;;;;16.66;100.00;99801.88;4999808;28;20036;-93
2023/06/06 01:09:10;;;;;;;0.55;0.55;;;;;;;16.67;100.00;99802.66;4995942;28;20037;-94
2023/06/06 01:12:03;;;;;;;0.98;0.82;;;;;;;16.58;100.00;99795.13;4995572;28;20098;-93
2023/06/06 01:14:41;;;;;;;0.85;0.85;;;;;;;16.65;100.00;99810.78;5032817;28;20086;-93
2023/06/06 01:17:09;;;;;;;0.52;0.52;;;;;;;16.83;100.00;99838.56;5018896;28;20487;-92
2023/06/06 01:19:37;;;;;;;0.60;0.60;;;;;;;16.86;100.00;99834.81;5013090;28;20108;-95
2023/06/06 01:22:05;;;;;;;1.88;0.75;;;;;;;16.88;100.00;99839.91;5019325;28;20065;-94
2023/06/06 01:24:31;;;;;;;0.80;0.73;;;;;;;16.76;100.00;99822.94;5018791;28;20646;-94
2023/06/06 01:26:57;;;;;;;1.13;1.00;;;;;;;16.66;100.00;99812.34;5024164;28;20050;-94
2023/06/06 01:29:23;;;;;;;0.25;0.25;;;;;;;16.63;100.00;99802.84;5000913;28;20025;-95
2023/06/06 01:31:59;;;;;;;0.80;0.80;;;;;;;16.73;100.00;99828.72;5006182;28;20041;-94
2023/06/06 01:34:39;;;;;;;1.23;1.08;;;;;;;16.71;100.00;99815.19;5043644;28;20129;-94
2023/06/06 01:37:11;;;;;;;0.68;0.68;;;;;;;16.76;100.00;99828.53;5014207;28;20414;-93
2023/06/06 01:39:39;;;;;;;0.73;0.43;;;;;;;16.75;100.00;99826.97;5036988;28;20620;-95
2023/06/06 01:42:06;;;;;;;0.68;0.68;;;;;;;16.65;100.00;99803.16;5002984;28;20116;-94
2023/06/06 01:44:32;;;;;;;0.35;0.35;;;;;;;16.53;100.00;99798.59;5009959;28;20058;-94
2023/06/06 01:46:59;;;;;;;0.50;0.50;;;;;;;16.58;100.00;99802.78;5003102;28;20032;-94
2023/06/06 01:49:25;;;;;;;0.93;0.75;;;;;;;16.79;100.00;99844.38;5019923;28;20033;-95
2023/06/06 01:51:53;;;;;;;1.55;0.75;;;;;;;16.69;100.00;99812.13;5021260;28;20056;-94
2023/06/06 01:54:18;;;;;;;0.40;0.40;;;;;;;16.79;100.00;99835.19;5019699;28;20032;-94
2023/06/06 01:56:44;;;;;;;1.30;1.20;;;;;;;16.69;100.00;99820.53;4998696;28;20025;-95
2023/06/06 01:59:09;;;;;;;0.85;0.77;;;;;;;16.78;100.00;99830.84;5004127;28;20474;-93
2023/06/06 02:01:35;;;;;;;0.82;0.82;;;;;;;16.71;100.00;99832.00;5007037;28;20030;-95
2023/06/06 02:04:01;;;;;;;1.48;1.38;;;;;;;16.64;100.00;99826.81;5004093;28;20445;-92
2023/06/06 02:06:26;;;;;;;3.70;1.27;;;;;;;16.68;100.00;99824.59;4999244;28;20276;-95
2023/06/06 02:08:52;;;;;;;1.45;1.20;;;;;;;16.49;100.00;99798.00;4985296;28;20116;-93
2023/06/06 02:11:18;;;;;;;0.30;0.30;;;;;;;16.58;100.00;99808.38;5007564;28;20359;-93
2023/06/06 02:13:43;;;;;;;1.60;1.50;;;;;;;16.56;100.00;99808.81;5021207;28;20128;-93
2023/06/06 02:16:09;;;;;;;1.40;1.30;;;;;;;16.42;100.00;99787.19;5037896;28;20040;-93
2023/06/06 02:18:35;;;;;;;0.57;0.57;;;;;;;16.74;100.00;99825.44;5025495;28;20032;-96
2023/06/06 02:21:01;;;;;;;0.82;0.82;;;;;;;16.58;100.00;99800.72;4991586;28;20066;-96
2023/06/06 02:23:26;;;;;;;0.35;0.35;;;;;;;16.70;100.00;99808.06;4999458;28;20221;-95
2023/06/06 02:25:53;;;;;;;1.98;1.20;;;;;;;16.93;100.00;99854.03;5000980;28;20041;-96
2023/06/06 02:28:20;;;;;;;0.85;0.77;;;;;;;16.57;100.00;99799.19;4999397;28;20045;-96
2023/06/06 02:30:52;;;;;;;0.32;0.32;;;;;;;16.65;100.00;99805.19;5000089;28;20037;-95
2023/06/06 02:33:23;;;;;;;0.38;0.38;;;;;;;16.78;100.00;99822.47;4999492;28;20470;-93
2023/06/06 02:35:50;;;;;;;0.90;0.90;;;;;;;16.74;100.00;99814.22;4996797;28;20060;-94
2023/06/06 02:38:17;;;;;;;0.45;0.43;;;;;;;16.77;100.00;99832.88;4993758;28;20032;-94
2023/06/06 02:40:43;;;;;;;1.40;1.05;;;;;;;16.74;100.00;99816.28;5001725;28;20036;-93
2023/06/06 02:43:08;;;;;;;1.27;1.17;;;;;;;16.56;100.00;99797.63;4995064;28;20038;-94
2023/06/06 02:45:35;;;;;;;2.50;1.20;;;;;;;16.76;100.00;99820.13;5000269;28;20037;-95
2023/06/06 02:48:00;;;;;;;0.68;0.52;;;;;;;16.84;100.00;99833.72;4994113;28;20111;-95
2023/06/06 02:50:28;;;;;;;0.63;0.63;;;;;;;16.72;100.00;99811.16;5001774;28;20046;-94
2023/06/06 02:52:55;;;;;;;0.40;0.40;;;;;;;16.78;100.00;99823.19;4998513;28;20080;-93
2023/06/06 02:55:21;;;;;;;0.38;0.38;;;;;;;16.63;100.00;99796.47;4998916;28;20106;-91
2023/06/06 02:57:47;;;;;;;1.10;0.50;;;;;;;16.86;100.00;99826.41;5005388;28;20469;-93
2023/06/06 03:00:12;;;;;;;0.70;0.30;;;;;;;16.85;100.00;99830.47;4993995;28;20038;-96
2023/06/06 03:02:38;;;;;;;1.50;1.40;;;;;;;16.61;100.00;99785.78;4983614;28;20041;-96
2023/06/06 03:05:04;;;;;;;0.43;0.43;;;;;;;16.63;100.00;99799.28;4986051;28;20057;-96
2023/06/06 03:07:33;;;;;;;1.60;1.17;;;;;;;16.93;100.00;99854.03;4992294;28;20131;-96
2023/06/06 03:10:03;;;;;;;0.70;0.70;;;;;;;16.80;100.00;99825.53;4990336;28;20486;-96
2023/06/06 03:12:37;;;;;;;0.75;0.75;;;;;;;16.62;100.00;99798.50;4994565;28;20117;-94
2023/06/06 03:15:03;;;;;;;0.70;0.70;;;;;;;16.82;100.00;99825.06;4980975;28;20402;-95
2023/06/06 03:17:35;;;;;;;2.65;0.57;;;;;;;16.73;100.00;99821.09;4983395;28;20356;-95
2023/06/06 03:20:01;;;;;;;0.05;0.05;;;;;;;16.86;100.00;99834.03;4983135;28;20034;-95
2023/06/06 03:22:29;;;;;;;1.63;0.93;;;;;;;16.70;100.00;99813.66;4981070;28;20378;-95
2023/06/06 03:24:59;;;;;;;0.90;0.60;;;;;;;16.79;100.00;99830.34;4990775;28;20141;-95
2023/06/06 03:27:24;;;;;;;1.98;1.35;;;;;;;16.72;100.00;99816.75;4978489;28;20087;-94
2023/06/06 03:29:52;;;;;;;0.40;0.40;;;;;;;16.75;100.00;99821.38;4974597;28;20030;-95
2023/06/06 03:32:19;;;;;;;1.13;1.10;;;;;;;16.79;100.00;99826.78;5008269;28;20038;-93
2023/06/06 03:34:45;;;;;;;0.20;0.20;;;;;;;16.61;100.00;99805.38;4975443;28;20084;-94
2023/06/06 03:37:12;;;;;;;0.30;0.30;;;;;;;16.78;100.00;99837.22;4978540;28;20061;-94
2023/06/06 03:39:39;;;;;;;1.35;1.25;;;;;;;16.76;100.00;99830.56;4985070;28;20029;-95
2023/06/06 03:42:05;;;;;;;0.57;0.57;;;;;;;16.73;100.00;99832.31;4983656;28;20499;-94
2023/06/06 03:44:34;;;;;;;0.25;0.25;;;;;;;16.43;100.00;99799.16;4979841;28;20060;-95
2023/06/06 03:47:00;;;;;;;0.80;0.65;;;;;;;16.59;100.00;99835.88;5012329;28;20103;-95
2023/06/06 03:49:26;;;;;;;0.57;0.57;;;;;;;16.56;100.00;99831.22;5016745;28;20459;-95
2023/06/06 03:51:51;;;;;;;0.43;0.43;;;;;;;16.46;100.00;99806.59;5005620;28;20037;-94
2023/06/06 03:54:17;;;;;;;1.83;1.55;;;;;;;16.74;100.00;99835.88;4994583;28;20034;-95
2023/06/06 03:56:43;;;;;;;0.80;0.75;;;;;;;16.61;100.00;99810.19;4985979;28;20073;-95
2023/06/06 03:59:11;;;;;;;0.25;0.25;;;;;;;16.70;100.00;99824.84;4986978;28;20128;-94
2023/06/06 04:01:38;;;;;;;0.20;0.20;;;;;;;16.79;100.00;99833.16;4999392;28;20471;-94
2023/06/06 04:04:04;;;;;;;0.60;0.60;;;;;;;16.86;100.00;99823.59;4994687;28;20077;-95
2023/06/06 04:06:30;;;;;;;1.85;1.23;;;;;;;16.79;100.00;99816.34;5010819;28;20156;-95
2023/06/06 04:08:58;;;;;;;1.17;1.08;;;;;;;16.76;100.00;99803.31;4985251;28;20540;-95
2023/06/06 04:11:24;;;;;;;0.40;0.40;;;;;;;16.96;100.00;99829.84;4998994;28;20032;-95
2023/06/06 04:13:52;;;;;;;1.02;0.98;;;;;;;17.16;100.00;99864.31;4989174;28;20080;-96
2023/06/06 04:16:17;;;;;;;1.00;0.98;;;;;;;17.04;100.00;99833.78;4995842;28;20482;-94
2023/06/06 04:18:43;;;;;;;1.55;1.45;;;;;;;16.89;100.00;99813.44;4994313;28;20025;-95
2023/06/06 04:21:11;;;;;;;0.43;0.43;;;;;;;16.93;100.00;99808.41;4994920;28;20087;-95
2023/06/06 04:23:50;;;;;;;1.35;1.17;;;;;;;16.91;100.00;99794.88;5015568;28;20084;-95
2023/06/06 04:26:26;;;;;;;1.52;1.42;;;;;;;16.95;100.00;99794.69;4984045;28;20045;-96
2023/06/06 04:28:58;;;;;;;0.40;0.40;;;;;;;17.16;100.00;99827.09;4983238;28;20529;-95
2023/06/06 04:31:31;;;;;;;0.52;0.52;;;;;;;17.05;100.00;99804.53;4991543;28;20033;-94
2023/06/06 04:33:57;;;;;;;0.60;0.60;;;;;;;17.05;100.00;99815.75;4979146;28;20050;-96
2023/06/06 04:36:24;;;;;;;0.68;0.63;;;;;;;17.04;100.00;99797.38;4983269;28;20481;-95
2023/06/06 04:39:00;;;;;;;0.80;0.63;;;;;;;17.25;100.00;99824.97;5005713;28;20033;-94
2023/06/06 04:41:26;;;;;;;0.30;0.30;;;;;;;17.41;100.00;99832.06;4986815;28;20033;-94
2023/06/06 04:43:51;;;;;;;0.90;0.82;;;;;;;17.50;100.00;99837.53;4988524;28;20120;-95
2023/06/06 04:46:21;;;;;;;3.20;1.35;;;;;;;17.41;100.00;99812.44;5000512;28;20761;-96
2023/06/06 04:48:54;;;;;;;1.05;1.02;;;;;;;17.46;100.00;99822.19;4981432;28;20506;-95
2023/06/06 06:15:15;;;;;;;1.00;0.90;;;;;;;18.55;100.00;99883.00;5042036;28;20072;-93
2023/06/06 06:17:40;;;;;;;1.42;0.98;;;;;;;18.49;100.00;99870.88;4994956;28;20030;-93
2023/06/06 06:20:09;;;;;;;2.80;0.73;;;;;;;18.60;100.00;99882.25;4994968;28;20033;-93
2023/06/06 06:22:35;;;;;;;8.27;0.98;;;;;;;18.58;100.00;99870.75;4997313;28;20476;-93
2023/06/06 06:28:53;;;;;;;1.27;0.80;;;;;;;18.87;100.00;99888.63;4982271;28;20126;-93
2023/06/06 06:31:18;;;;;;;0.65;0.65;;;;;;;18.82;100.00;99883.72;4996871;28;20037;-93
2023/06/06 06:33:44;;;;;;;0.73;0.73;;;;;;;18.72;100.00;99869.09;5013922;28;20120;-93
2023/06/06 06:36:10;;;;;;;1.00;0.88;;;;;;;18.69;100.00;99858.06;4992493;28;20432;-93
2023/06/06 06:38:36;;;;;;;0.63;0.63;;;;;;;18.96;100.00;99886.44;5003474;28;20021;-94
2023/06/06 06:41:01;;;;;;;0.28;0.28;;;;;;;19.05;100.00;99891.06;4994282;28;20037;-94
2023/06/06 06:43:27;;;;;;;0.80;0.80;;;;;;;19.04;100.00;99890.34;5022657;28;20447;-94
2023/06/06 06:45:59;;;;;;;1.10;1.10;;;;;;;18.94;100.00;99885.38;5011884;28;20041;-93
2023/06/06 06:48:25;;;;;;;1.15;1.02;;;;;;;19.04;100.00;99890.34;5014260;28;20036;-93
2023/06/06 06:50:52;;;;;;;0.65;0.65;;;;;;;18.85;100.00;99875.06;5014491;28;20039;-94
2023/06/06 06:53:18;;;;;;;1.17;1.05;;;;;;;19.14;100.00;99904.97;4997161;28;20036;-93
2023/06/06 06:55:45;;;;;;;0.68;0.68;;;;;;;19.15;100.00;99891.69;4992930;28;20488;-93
2023/06/06 06:58:13;;;;;;;0.68;0.65;;;;;;;19.12;100.00;99885.03;5007851;28;20050;-93
2023/06/06 07:00:53;;;;;;;1.20;1.10;;;;;;;19.24;100.00;99891.50;4994750;28;20037;-93
2023/06/06 09:40:25;;;;;;;0.40;0.40;;;;;;;21.30;100.00;99862.75;3326610;26;20313;-93
2023/06/06 09:42:50;;;;;;;1.23;1.13;;;;;;;21.28;100.00;99859.66;4944129;28;20042;-93
2023/06/06 09:45:18;;;;;;;0.95;0.55;;;;;;;21.31;100.00;99858.63;4953892;28;20149;-93
2023/06/06 09:47:47;;;;;;;1.30;1.20;;;;;;;21.31;100.00;99874.81;4969729;28;20194;-93
2023/06/06 09:50:15;;;;;;;0.90;0.82;;;;;;;21.10;100.00;99843.25;4969540;28;20043;-91
2023/06/06 09:52:41;;;;;;;0.45;0.45;;;;;;;21.30;100.00;99856.34;4977470;28;20403;-94
2023/06/06 09:55:12;;;;;;;0.73;0.73;;;;;;;21.44;100.00;99869.38;4958089;28;20045;-95
2023/06/06 09:57:39;;;;;;;1.45;1.35;;;;;;;21.26;100.00;99867.91;4977852;28;20062;-91
2023/06/06 10:00:10;;;;;;;1.40;0.90;;;;;;;21.31;100.00;99847.34;4968669;28;20058;-91
2023/06/06 10:02:46;;;;;;;1.60;1.30;;;;;;;21.14;100.00;99855.09;4973335;28;20125;-92
2023/06/06 10:05:14;;;;;;;0.65;0.65;;;;;;;21.01;100.00;99851.22;4963353;28;20035;-92
2023/06/06 10:07:41;;;;;;;0.70;0.70;;;;;;;21.01;100.00;99863.25;4969990;28;20406;-93
2023/06/06 10:10:12;;;;;;;1.50;0.80;;;;;;;20.94;100.00;99855.31;4965742;28;20039;-92
2023/06/06 10:12:38;;;;;;;0.82;0.75;;;;;;;21.06;100.00;99862.50;4967584;28;20146;-92
2023/06/06 10:15:06;;;;;;;0.98;0.93;;;;;;;20.95;100.00;99848.38;4963810;28;20039;-91
2023/06/06 10:17:34;;;;;;;0.88;0.88;;;;;;;20.84;100.00;99837.13;4948960;28;20113;-91
2023/06/06 10:20:05;;;;;;;1.08;0.93;;;;;;;20.89;100.00;99864.53;4960171;28;20035;-93
2023/06/06 10:22:35;;;;;;;0.63;0.55;;;;;;;20.80;100.00;99853.50;4953140;28;20520;-90
2023/06/06 10:25:08;;;;;;;2.22;2.05;;;;;;;20.69;100.00;99828.16;4923157;29;20039;-92
2023/06/06 10:27:43;;;;;;;1.50;1.03;;;;;;;20.59;100.00;99869.88;4968333;28;20070;-93
2023/06/06 10:30:18;;;;;;;0.98;0.82;;;;;;;20.24;100.00;99875.16;4954079;28;20052;-95
2023/06/06 10:33:05;;;;;;;1.23;1.02;;;;;;;20.32;100.00;99854.47;4958572;28;20120;-93
2023/06/06 10:35:32;;;;;;;2.05;1.08;;;;;;;20.43;100.00;99857.31;4973031;28;20043;-92
2023/06/06 10:38:06;;;;;;;0.60;0.60;;;;;;;20.50;100.00;99858.09;4951453;28;20046;-91
2023/06/06 10:40:52;;;;;;;0.82;0.73;;;;;;;20.57;100.00;99860.41;4940795;28;20523;-92
2023/06/06 10:43:33;;;;;;;0.68;0.68;;;;;;;20.65;100.00;99853.00;4969215;28;20042;-92
2023/06/06 10:45:59;;;;;;;0.80;0.68;;;;;;;20.54;100.00;99836.84;4980656;28;20038;-95
2023/06/06 10:48:41;;;;;;;1.05;0.95;;;;;;;20.73;100.00;99865.31;4957652;28;20084;-96
2023/06/06 10:51:07;;;;;;;3.63;0.85;;;;;;;20.59;100.00;99838.13;4944575;28;20043;-95
2023/06/06 10:53:33;;;;;;;0.80;0.80;;;;;;;20.45;100.00;99823.78;4957308;28;20052;-96
2023/06/06 10:55:59;;;;;;;0.30;0.30;;;;;;;20.67;100.00;99851.19;4948523;28;20043;-95
2023/06/06 10:58:29;;;;;;;0.80;0.80;;;;;;;20.80;100.00;99853.50;4959164;28;20073;-94
2023/06/06 11:00:59;;;;;;;1.08;1.00;;;;;;;20.80;100.00;99854.28;4958144;28;20062;-95
2023/06/06 11:03:39;;;;;;;1.95;0.80;;;;;;;20.72;100.00;99841.97;4942703;28;20034;-94
2023/06/06 11:06:08;;;;;;;0.88;0.75;;;;;;;20.86;100.00;99857.13;4950471;28;20473;-95
2023/06/06 11:08:39;;;;;;;18.00;0.90;;;;;;;20.86;100.00;99854.31;4960135;28;20026;-95
2023/06/06 11:11:26;;;;;;;0.75;0.75;;;;;;;20.88;100.00;99860.19;4952853;28;20027;-94
2023/06/06 11:13:53;;;;;;;2.40;2.20;;;;;;;20.83;100.00;99863.75;4968911;28;20038;-94
2023/06/06 12:17:28;;;;;;;1.77;1.67;;;;;;;21.17;100.00;99858.91;974850;23;20321;-94
2023/06/06 12:19:58;;;;;;;0.73;0.73;;;;;;;20.68;100.00;99840.69;5006855;28;20110;-96
2023/06/06 12:22:27;;;;;;;0.98;0.93;;;;;;;20.83;100.00;99860.94;5025730;28;20041;-93
2023/06/06 12:24:53;;;;;;;1.48;1.38;;;;;;;21.05;100.00;99866.59;5009393;28;20083;-92
2023/06/06 12:27:27;;;;;;;0.65;0.65;;;;;;;21.06;100.00;99842.75;5013862;28;20037;-92
2023/06/06 12:29:54;;;;;;;0.80;0.80;;;;;;;21.13;100.00;99844.31;5029946;28;20088;-95
2023/06/06 12:32:26;;;;;;;0.77;0.77;;;;;;;21.06;100.00;99825.84;5017274;28;20028;-92
2023/06/06 12:34:59;;;;;;;1.60;0.77;;;;;;;20.97;100.00;99840.19;5032689;28;20087;-95
2023/06/06 12:37:42;;;;;;;0.40;0.40;;;;;;;20.38;100.00;99824.25;5005279;28;20499;-92
2023/06/06 12:40:23;;;;;;;0.80;0.77;;;;;;;20.02;100.00;99823.13;5017730;28;20487;-93
2023/06/06 12:42:53;;;;;;;0.55;0.52;;;;;;;19.88;100.00;99834.59;5011632;28;20049;-93
2023/06/06 12:45:19;;;;;;;2.75;1.98;;;;;;;20.00;100.00;99844.63;5022397;28;20029;-94
2023/06/06 12:47:55;;;;;;;2.60;1.63;;;;;;;19.93;100.00;99845.13;4992527;28;20065;-94
2023/06/06 12:50:22;;;;;;;0.47;0.47;;;;;;;19.84;100.00;99828.44;5015002;28;20037;-94
2023/06/06 12:52:48;;;;;;;1.70;1.55;;;;;;;19.80;100.00;99851.19;5016213;28;20044;-95
2023/06/06 12:55:15;;;;;;;2.08;1.95;;;;;;;19.58;100.00;99830.59;5021355;28;20040;-96
2023/06/06 12:58:00;;;;;;;0.85;0.85;;;;;;;19.29;100.00;99793.09;5020907;28;20030;-95
2023/06/06 15:09:17;;;;;;;1.27;0.82;;;;;;;19.18;100.00;99769.78;3133644;23;20046;-91
2023/06/06 15:11:43;;;;;;;0.90;0.68;;;;;;;19.40;100.00;99793.19;4953063;28;20038;-92
2023/06/06 15:14:12;;;;;;;1.85;1.55;;;;;;;19.35;100.00;99768.59;4954746;28;20448;-91
2023/06/06 15:16:42;;;;;;;2.25;2.05;;;;;;;19.19;100.00;99731.94;4937472;28;20038;-92
2023/06/06 15:19:08;;;;;;;1.98;1.52;;;;;;;19.23;100.00;99738.88;4978341;28;20588;-90
2023/06/06 15:21:36;;;;;;;1.58;1.15;;;;;;;19.39;100.00;99762.72;4954305;28;20507;-89
2023/06/06 15:24:04;;;;;;;1.17;0.95;;;;;;;19.43;100.00;99780.16;4974234;28;20065;-89
2023/06/06 15:26:31;;;;;;;0.85;0.85;;;;;;;19.06;100.00;99735.22;4978112;28;20523;-90
2023/06/06 15:28:57;;;;;;;2.20;1.10;;;;;;;18.82;100.00;99732.00;4975814;28;20774;-91
2023/06/06 15:31:23;;;;;;;2.28;1.77;;;;;;;18.94;100.00;99768.09;4971177;28;20038;-91
2023/06/06 15:33:49;;;;;;;6.45;1.52;;;;;;;18.91;100.00;99757.09;4973152;28;20668;-92
2023/06/06 15:36:14;;;;;;;0.73;0.73;;;;;;;18.97;100.00;99761.47;4989546;28;20085;-89
2023/06/06 15:38:40;;;;;;;2.25;1.40;;;;;;;19.05;100.00;99756.16;5000449;28;20041;-91
2023/06/06 15:41:09;;;;;;;1.33;1.23;;;;;;;19.00;100.00;99740.03;4972625;28;20038;-90
2023/06/06 15:43:34;;;;;;;2.28;1.48;;;;;;;18.92;100.00;99708.06;4956414;28;20042;-90
2023/06/06 15:46:00;;;;;;;0.60;0.43;;;;;;;19.26;100.00;99759.59;4995060;28;20035;-91
2023/06/06 15:48:30;;;;;;;0.73;0.73;;;;;;;19.04;100.00;99720.91;4999270;28;20042;-90
2023/06/06 15:50:56;;;;;;;0.82;0.80;;;;;;;18.99;100.00;99707.56;4977472;28;20034;-90
2023/06/06 15:53:21;;;;;;;0.80;0.80;;;;;;;19.13;100.00;99733.97;4988128;28;20034;-90
2023/06/06 15:55:47;;;;;;;1.67;1.42;;;;;;;19.20;100.00;99742.72;4955588;28;20404;-90
2023/06/06 15:58:15;;;;;;;1.05;0.95;;;;;;;19.12;100.00;99724.00;4994600;28;20118;-92
2023/06/06 16:00:40;;;;;;;0.55;0.50;;;;;;;19.09;100.00;99717.31;4998430;28;20030;-90
2023/06/06 16:03:09;;;;;;;1.08;1.02;;;;;;;19.25;100.00;99718.72;4967934;28;20381;-91
2023/06/06 16:05:43;;;;;;;0.55;0.40;;;;;;;19.45;100.00;99761.50;4976327;28;20487;-90
2023/06/06 16:08:09;;;;;;;1.15;1.05;;;;;;;19.26;100.00;99743.50;4955784;28;20047;-91
2023/06/06 16:10:35;;;;;;;0.20;0.10;;;;;;;19.20;100.00;99717.41;4992806;28;20659;-91
2023/06/06 16:13:01;;;;;;;2.17;0.85;;;;;;;19.14;100.00;99713.00;4982971;28;20049;-91
2023/06/06 16:15:26;;;;;;;0.47;0.47;;;;;;;19.30;100.00;99752.47;4978034;28;20032;-90
2023/06/06 16:17:52;;;;;;;0.73;0.73;;;;;;;19.06;100.00;99723.97;4997732;28;20030;-91
2023/06/06 16:20:17;;;;;;;1.33;1.20;;;;;;;19.15;100.00;99754.69;5005845;28;20120;-92
2023/06/06 16:22:43;;;;;;;0.70;0.55;;;;;;;19.12;100.00;99755.69;4975929;28;20033;-90
2023/06/06 16:25:09;;;;;;;0.77;0.63;;;;;;;19.01;100.00;99727.50;5018224;28;20521;-90
2023/06/06 16:27:34;;;;;;;0.65;0.57;;;;;;;18.91;100.00;99735.38;4989797;28;20045;-92
2023/06/06 16:30:00;;;;;;;0.57;0.57;;;;;;;19.00;100.00;99731.59;4984983;28;20069;-90
2023/06/06 16:32:25;;;;;;;0.40;0.40;;;;;;;19.17;100.00;99754.19;4975031;28;20400;-90
2023/06/06 16:34:51;;;;;;;1.23;1.08;;;;;;;19.13;100.00;99748.78;4990217;28;20042;-92
2023/06/06 16:37:17;;;;;;;1.60;0.63;;;;;;;19.15;100.00;99742.66;4992521;28;20184;-91
2023/06/06 16:39:45;;;;;;;0.57;0.50;;;;;;;19.31;100.00;99762.44;4996127;28;20044;-92
2023/06/06 16:42:11;;;;;;;1.70;0.93;;;;;;;19.60;100.00;99795.09;4977558;28;20041;-90
2023/06/06 16:44:39;;;;;;;0.32;0.32;;;;;;;19.29;100.00;99750.16;5009789;28;20025;-91
2023/06/06 16:47:05;;;;;;;0.20;0.20;;;;;;;19.28;100.00;99762.69;4980120;28;20402;-91
2023/06/06 16:49:31;;;;;;;0.98;0.95;;;;;;;19.27;100.00;99766.75;4989512;28;20057;-91
2023/06/06 16:52:26;;;;;;;0.57;0.57;;;;;;;19.28;100.00;99757.84;4983512;28;20089;-93
2023/06/06 16:54:51;;;;;;;0.32;0.32;;;;;;;19.50;100.00;99802.97;4988751;28;20034;-91
2023/06/06 16:57:17;;;;;;;0.50;0.50;;;;;;;19.27;100.00;99773.16;4963263;28;20096;-91
2023/06/06 16:59:43;;;;;;;1.13;1.08;;;;;;;19.43;100.00;99806.25;4987068;28;20032;-90
2023/06/06 17:02:11;;;;;;;0.10;0.10;;;;;;;19.29;100.00;99798.72;4998159;28;20153;-90
2023/06/06 17:04:36;;;;;;;0.63;0.63;;;;;;;19.33;100.00;99799.25;4972481;28;20487;-91
2023/06/06 17:07:03;;;;;;;1.50;0.57;;;;;;;19.26;100.00;99796.91;5005635;28;20054;-91
2023/06/06 17:09:31;;;;;;;0.17;0.17;;;;;;;19.30;100.00;99805.13;4991623;28;20526;-91
2023/06/06 17:11:59;;;;;;;1.40;0.65;;;;;;;19.37;100.00;99822.28;5009945;28;20037;-91
2023/06/06 17:14:25;;;;;;;0.10;0.10;;;;;;;19.14;100.00;99797.34;4988408;28;20521;-91
2023/06/06 17:16:50;;;;;;;0.32;0.30;;;;;;;19.21;100.00;99802.53;4993720;28;20027;-92
2023/06/06 17:19:16;;;;;;;0.57;0.40;;;;;;;19.19;100.00;99805.06;5005221;28;20805;-90
2023/06/06 17:21:41;;;;;;;0.43;0.43;;;;;;;19.37;100.00;99841.22;5012176;28;20052;-90
2023/06/06 17:24:07;;;;;;;2.60;1.50;;;;;;;19.24;100.00;99824.00;4994472;28;20061;-91
2023/06/06 17:26:32;;;;;;;1.30;0.57;;;;;;;19.08;100.00;99817.00;5006853;28;20535;-91
2023/06/06 17:28:58;;;;;;;0.30;0.30;;;;;;;18.92;100.00;99798.00;5009036;28;20095;-90
2023/06/06 17:31:25;;;;;;;0.77;0.65;;;;;;;18.98;100.00;99838.13;4987050;28;20483;-91
2023/06/06 17:33:56;;;;;;;1.85;1.02;;;;;;;18.97;100.00;99845.78;4989743;28;20061;-92
2023/06/06 17:36:22;;;;;;;1.15;1.00;;;;;;;18.70;100.00;99815.44;4994583;28;20034;-91
2023/06/06 17:38:48;;;;;;;1.33;0.82;;;;;;;18.77;100.00;99831.06;5004152;28;20030;-90
2023/06/06 17:41:13;;;;;;;0.32;0.32;;;;;;;18.73;100.00;99836.13;4989362;28;20455;-91
2023/06/06 17:43:40;;;;;;;1.17;0.52;;;;;;;18.55;100.00;99815.56;4970061;28;20113;-90
2023/06/06 17:46:08;;;;;;;0.10;0.10;;;;;;;18.77;100.00;99871.16;4989417;28;20048;-90
2023/06/06 17:48:37;;;;;;;1.77;1.67;;;;;;;18.72;100.00;99863.50;4989309;28;20080;-91
2023/06/06 17:51:05;;;;;;;0.10;0.10;;;;;;;18.61;100.00;99846.50;4977615;28;20065;-91
2023/06/06 17:53:42;;;;;;;0.15;0.15;;;;;;;18.70;100.00;99865.22;4975960;28;20121;-90
2023/06/06 17:56:10;;;;;;;0.95;0.95;;;;;;;18.48;100.00;99838.44;4989117;28;21305;-91
2023/06/06 17:58:36;;;;;;;0.75;0.75;;;;;;;18.36;100.00;99831.16;4980680;28;20639;-91
2023/06/06 18:01:09;;;;;;;0.75;0.57;;;;;;;18.40;100.00;99848.56;4992757;28;20049;-91
2023/06/06 18:03:37;;;;;;;1.00;0.57;;;;;;;18.17;100.00;99841.97;4988916;28;20128;-90
2023/06/06 18:06:08;;;;;;;0.43;0.43;;;;;;;18.02;100.00;99824.44;4996048;28;20050;-91
2023/06/06 18:08:37;;;;;;;1.38;1.27;;;;;;;18.14;100.00;99859.03;5008574;28;20588;-92
2023/06/06 18:11:03;;;;;;;0.00;0.00;;;;;;;18.06;100.00;99841.06;4978126;28;20088;-91
2023/06/06 18:13:29;;;;;;;0.40;0.40;;;;;;;17.94;100.00;99833.78;4991761;28;20042;-91
2023/06/06 18:15:57;;;;;;;1.23;1.13;;;;;;;17.98;100.00;99828.72;4975736;28;20471;-91
2023/06/06 18:18:23;;;;;;;0.75;0.75;;;;;;;18.06;100.00;99832.66;4969383;28;20041;-90
2023/06/06 18:20:55;;;;;;;0.98;0.93;;;;;;;17.78;100.00;99792.28;4978816;28;20045;-91
2023/06/06 18:23:40;;;;;;;0.90;0.65;;;;;;;17.80;100.00;99798.16;4985958;28;20163;-96
2023/06/06 18:26:08;;;;;;;1.25;0.98;;;;;;;18.05;100.00;99828.28;4966978;28;20488;-89
2023/06/06 18:28:34;;;;;;;0.30;0.30;;;;;;;17.91;100.00;99801.09;4965733;28;20038;-90
2023/06/06 18:31:23;;;;;;;0.10;0.10;;;;;;;18.16;100.00;99850.88;5010598;23;20455;-91
2023/06/06 18:34:12;;;;;;;0.55;0.55;;;;;;;17.88;100.00;99807.69;4978873;28;20045;-93
2023/06/06 18:37:03;;;;;;;0.05;0.05;;;;;;;17.73;100.00;99802.16;5031046;28;20516;-92
2023/06/06 18:39:52;;;;;;;0.63;0.55;;;;;;;17.87;100.00;99825.81;5005172;28;20095;-93
2023/06/06 18:42:40;;;;;;;0.25;0.25;;;;;;;18.04;100.00;99857.63;4983753;28;20042;-91
2023/06/06 18:45:08;;;;;;;0.85;0.73;;;;;;;17.67;100.00;99816.09;5008438;28;20498;-92